createdAt,value
2023-01-01T00:01:15.584Z,5.00
2023-01-01T00:04:34.675Z,4.90
2023-01-01T00:07:38.602Z,4.90
2023-01-01T00:10:42.501Z,5.20
2023-01-01T00:13:46.502Z,5.40
2023-01-01T00:16:50.578Z,5.60
2023-01-01T00:19:54.606Z,5.30
2023-01-01T00:22:58.540Z,5.10
2023-01-01T00:26:13.109Z,4.80
2023-01-01T00:29:16.992Z,5.00
2023-01-01T00:32:23.059Z,5.00
2023-01-01T00:35:27.788Z,5.60
2023-01-01T00:38:33.371Z,5.40
2023-01-01T00:41:37.381Z,4.90
2023-01-01T00:44:41.283Z,5.20
2023-01-01T00:47:45.216Z,4.70
2023-01-01T00:50:50.323Z,5.20
2023-01-01T00:53:54.249Z,4.60
2023-01-01T00:56:58.277Z,4.60
2023-01-01T01:00:02.297Z,5.00
2023-01-01T01:03:06.837Z,4.90
2023-01-01T01:06:15.577Z,5.30
2023-01-01T01:09:19.564Z,5.10
2023-01-01T01:12:23.585Z,4.60
2023-01-01T01:15:27.517Z,5.10
2023-01-01T01:18:31.510Z,5.00
2023-01-01T01:21:35.547Z,6.00
2023-01-01T01:24:39.490Z,4.60
2023-01-01T01:27:43.464Z,5.90
2023-01-01T01:30:47.408Z,5.00
2023-01-01T01:33:51.799Z,5.20
2023-01-01T01:36:56.290Z,4.80
2023-01-01T01:43:04.254Z,4.70
2023-01-01T01:46:20.461Z,4.60
2023-01-01T01:49:30.584Z,4.70
2023-01-01T01:52:37.143Z,4.50
2023-01-01T01:55:47.435Z,4.80
2023-01-01T01:58:51.648Z,4.60
2023-01-01T02:02:00.725Z,4.30
2023-01-01T02:05:06.231Z,4.40
2023-01-01T02:08:14.780Z,4.70
2023-01-01T02:11:21.953Z,5.20
2023-01-01T02:14:26.232Z,4.50
2023-01-01T02:18:03.694Z,4.40
2023-01-01T02:21:33.203Z,5.00
2023-01-01T02:24:52.576Z,4.70
2023-01-01T02:28:19.909Z,4.50
2023-01-01T02:31:31.618Z,4.70
2023-01-01T02:34:41.200Z,5.10
2023-01-01T02:37:45.366Z,4.50
2023-01-01T02:40:54.906Z,5.10
2023-01-01T02:47:17.211Z,4.00
2023-01-01T02:50:25.533Z,5.00
2023-01-01T02:53:36.305Z,4.70
2023-01-01T02:56:46.270Z,3.60
2023-01-01T03:00:24.487Z,4.20
2023-01-01T03:03:38.005Z,3.70
2023-01-01T03:06:55.345Z,4.50
2023-01-01T03:10:02.556Z,3.80
2023-01-01T03:13:20.876Z,4.60
2023-01-01T03:16:39.472Z,4.10
2023-01-01T03:19:45.608Z,3.80
2023-01-01T03:22:53.371Z,4.60
2023-01-01T03:26:01.077Z,4.60
2023-01-01T03:29:06.259Z,4.20
2023-01-01T03:32:16.217Z,3.90
2023-01-01T03:35:25.526Z,3.80
2023-01-01T03:38:43.102Z,3.80
2023-01-01T03:41:56.121Z,4.20
2023-01-01T03:45:17.236Z,4.00
2023-01-01T03:48:21.552Z,4.30
2023-01-01T03:51:50.264Z,3.90
2023-01-01T03:55:09.141Z,3.20
2023-01-01T03:58:41.192Z,3.20
2023-01-01T04:01:49.601Z,4.00
2023-01-01T04:04:53.829Z,3.90
2023-01-01T04:08:02.243Z,3.20
2023-01-01T04:11:34.625Z,3.30
2023-01-01T04:14:41.410Z,3.10
2023-01-01T04:17:45.421Z,3.30
2023-01-01T04:20:49.441Z,2.90
2023-01-01T04:23:53.453Z,3.10
2023-01-01T04:26:58.478Z,2.80
2023-01-01T04:30:03.375Z,2.50
2023-01-01T04:33:07.284Z,3.50
2023-01-01T04:36:11.364Z,3.60
2023-01-01T04:39:15.354Z,2.60
2023-01-01T04:42:19.890Z,3.20
2023-01-01T04:48:29.367Z,3.10
2023-01-01T04:51:33.388Z,3.00
2023-01-01T04:54:37.889Z,2.70
2023-01-01T05:00:50.756Z,2.40
2023-01-01T05:03:56.052Z,2.60
2023-01-01T05:07:00.218Z,2.60
2023-01-01T05:10:05.016Z,3.20
2023-01-01T05:13:09.565Z,2.60
2023-01-01T05:16:17.063Z,3.00
2023-01-01T05:19:21.283Z,2.80
2023-01-01T05:22:25.172Z,2.60
2023-01-01T05:25:29.127Z,2.80
2023-01-01T05:28:33.012Z,2.90
2023-01-01T05:31:37.032Z,2.80
2023-01-01T05:34:41.483Z,3.00
2023-01-01T05:37:45.366Z,3.10
2023-01-01T05:40:49.420Z,3.30
2023-01-01T05:43:53.709Z,2.80
2023-01-01T05:46:58.161Z,2.80
2023-01-01T05:53:05.739Z,3.20
2023-01-01T05:56:09.660Z,2.80
2023-01-01T05:59:13.814Z,3.00
2023-01-01T06:02:18.499Z,2.70
2023-01-01T06:05:23.134Z,2.90
2023-01-01T06:08:27.193Z,2.20
2023-01-01T06:11:32.492Z,2.60
2023-01-01T06:14:36.878Z,2.60
2023-01-01T06:17:40.760Z,2.50
2023-01-01T06:20:44.683Z,2.80
2023-01-01T06:23:49.072Z,3.00
2023-01-01T06:26:53.022Z,2.90
2023-01-01T06:29:57.859Z,2.80
2023-01-01T06:33:01.843Z,2.60
2023-01-01T06:36:09.076Z,2.50
2023-01-01T06:39:13.092Z,2.70
2023-01-01T06:42:17.303Z,2.90
2023-01-01T06:45:21.329Z,2.70
2023-01-01T06:48:25.224Z,2.60
2023-01-01T06:51:36.525Z,2.60
2023-01-01T06:54:40.464Z,2.60
2023-01-01T06:57:44.381Z,2.50
2023-01-01T07:00:48.360Z,2.60
2023-01-01T07:03:54.720Z,2.40
2023-01-01T07:06:58.603Z,2.70
2023-01-01T07:10:02.613Z,2.80
2023-01-01T07:13:06.685Z,2.50
2023-01-01T07:16:13.429Z,2.40
2023-01-01T07:19:17.730Z,2.70
2023-01-01T07:22:21.620Z,2.50
2023-01-01T07:25:25.535Z,2.90
2023-01-01T07:28:29.457Z,2.50
2023-01-01T07:31:33.802Z,2.60
2023-01-01T07:34:37.784Z,2.60
2023-01-01T07:37:41.861Z,2.50
2023-01-01T07:40:45.997Z,2.30
2023-01-01T07:43:50.053Z,2.60
2023-01-01T07:47:04.844Z,2.50
2023-01-01T07:50:16.877Z,2.30
2023-01-01T07:53:20.906Z,2.10
2023-01-01T07:56:24.972Z,2.80
2023-01-01T07:59:28.917Z,3.20
2023-01-01T08:02:33.319Z,2.60
2023-01-01T08:05:38.978Z,2.50
2023-01-01T08:08:43.126Z,2.10
2023-01-01T08:11:47.331Z,2.70
2023-01-01T08:14:51.415Z,2.80
2023-01-01T08:17:59.997Z,2.90
2023-01-01T08:21:05.230Z,2.20
2023-01-01T08:24:09.351Z,2.40
2023-01-01T08:27:14.498Z,2.90
2023-01-01T08:30:18.712Z,2.50
2023-01-01T08:33:23.220Z,2.80
2023-01-01T08:36:29.068Z,2.30
2023-01-01T08:39:33.320Z,2.10
2023-01-01T08:42:37.247Z,2.40
2023-01-01T08:45:41.180Z,2.50
2023-01-01T08:48:45.148Z,3.20
2023-01-01T08:51:49.044Z,2.30
2023-01-01T08:54:53.090Z,2.40
2023-01-01T08:57:57.064Z,2.70
2023-01-01T09:01:01.575Z,2.60
2023-01-01T09:04:13.584Z,2.60
2023-01-01T09:07:19.446Z,2.60
2023-01-01T09:10:23.362Z,2.60
2023-01-01T09:13:28.152Z,2.00
2023-01-01T09:16:32.203Z,2.70
2023-01-01T09:19:36.279Z,2.90
2023-01-01T09:22:40.394Z,2.50
2023-01-01T09:25:44.305Z,2.10
2023-01-01T09:28:48.331Z,2.40
2023-01-01T09:31:52.399Z,2.70
2023-01-01T09:34:57.381Z,2.30
2023-01-01T09:38:01.390Z,2.90
2023-01-01T09:41:22.271Z,2.40
2023-01-01T09:44:44.774Z,2.30
2023-01-01T09:48:04.133Z,2.60
2023-01-01T09:51:15.696Z,2.10
2023-01-01T09:54:30.093Z,2.80
2023-01-01T09:57:34.040Z,1.90
2023-01-01T10:00:42.447Z,2.50
2023-01-01T10:03:56.441Z,2.70
2023-01-01T10:07:06.727Z,2.50
2023-01-01T10:10:31.839Z,2.50
2023-01-01T10:13:44.046Z,2.90
2023-01-01T10:16:53.389Z,2.30
2023-01-01T10:20:01.890Z,2.20
2023-01-01T10:23:19.769Z,2.70
2023-01-01T10:26:27.206Z,2.10
2023-01-01T10:29:40.761Z,2.10
2023-01-01T10:32:48.195Z,2.50
2023-01-01T10:35:56.927Z,2.70
2023-01-01T10:39:00.887Z,2.20
2023-01-01T10:42:05.039Z,2.60
2023-01-01T10:45:15.482Z,2.70
2023-01-01T10:48:27.106Z,3.10
2023-01-01T10:51:31.120Z,3.00
2023-01-01T10:54:39.000Z,2.40
2023-01-01T10:57:42.907Z,2.80
2023-01-01T11:00:58.482Z,3.50
2023-01-01T11:04:05.352Z,2.70
2023-01-01T11:07:09.500Z,2.80
2023-01-01T11:10:25.838Z,2.40
2023-01-01T11:16:39.934Z,3.00
2023-01-01T11:19:52.680Z,3.30
2023-01-01T11:22:58.585Z,2.60
2023-01-01T11:26:17.957Z,2.60
2023-01-01T11:29:29.368Z,2.70
2023-01-01T11:32:36.750Z,2.60
2023-01-01T11:35:55.305Z,3.20
2023-01-01T11:39:18.213Z,2.00
2023-01-01T11:42:34.770Z,2.40
2023-01-01T11:45:42.283Z,2.60
2023-01-01T11:48:46.590Z,2.40
2023-01-01T11:51:50.713Z,2.70
2023-01-01T11:55:03.828Z,3.50
2023-01-01T11:58:29.821Z,2.60
2023-01-01T12:01:40.889Z,2.70
2023-01-01T12:04:53.772Z,2.30
2023-01-01T12:07:59.797Z,3.10
2023-01-01T12:11:15.425Z,2.70
2023-01-01T12:14:35.209Z,2.20
2023-01-01T12:17:53.973Z,2.80
2023-01-01T12:21:06.077Z,3.00
2023-01-01T12:24:12.398Z,2.80
2023-01-01T12:27:33.878Z,2.90
2023-01-01T12:30:51.930Z,3.10
2023-01-01T12:34:05.547Z,2.90
2023-01-01T12:37:34.527Z,2.70
2023-01-01T12:40:57.942Z,3.10
2023-01-01T12:44:35.597Z,2.80
2023-01-01T12:47:55.480Z,2.90
2023-01-01T12:51:31.059Z,3.10
2023-01-01T12:55:02.806Z,2.50
2023-01-01T12:58:16.806Z,2.70
2023-01-01T13:01:28.457Z,3.30
2023-01-01T13:04:36.800Z,2.60
2023-01-01T13:07:45.634Z,2.80
2023-01-01T13:10:53.096Z,3.30
2023-01-01T13:13:57.150Z,2.90
2023-01-01T13:17:01.180Z,2.60
2023-01-01T13:20:14.352Z,2.70
2023-01-01T13:23:34.726Z,2.80
2023-01-01T13:26:40.667Z,2.70
2023-01-01T13:29:45.390Z,2.30
2023-01-01T13:33:10.845Z,2.40
2023-01-01T13:36:20.659Z,3.10
2023-01-01T13:40:01.546Z,2.80
2023-01-01T13:43:16.112Z,2.90
2023-01-01T13:46:31.149Z,2.90
2023-01-01T13:49:55.468Z,2.80
2023-01-01T13:53:50.889Z,2.80
2023-01-01T13:57:00.399Z,2.90
2023-01-01T14:00:07.137Z,2.90
2023-01-01T14:03:18.825Z,2.90
2023-01-01T14:06:32.508Z,2.70
2023-01-01T14:09:36.772Z,2.60
2023-01-01T14:12:40.791Z,3.00
2023-01-01T14:15:58.771Z,3.00
2023-01-01T14:19:03.609Z,2.80
2023-01-01T14:22:10.140Z,3.00
2023-01-01T14:25:16.848Z,2.90
2023-01-01T14:28:26.120Z,3.50
2023-01-01T14:31:34.496Z,3.30
2023-01-01T14:34:38.563Z,3.20
2023-01-01T14:37:43.176Z,3.40
2023-01-01T14:40:47.180Z,3.70
2023-01-01T14:43:53.984Z,3.50
2023-01-01T14:46:58.137Z,3.20
2023-01-01T14:50:11.551Z,2.80
2023-01-01T14:53:20.605Z,3.70
2023-01-01T14:56:35.760Z,3.10
2023-01-01T14:59:47.886Z,4.20
2023-01-01T15:02:52.016Z,3.80
2023-01-01T15:06:01.918Z,3.10
2023-01-01T15:09:06.906Z,4.20
2023-01-01T15:12:13.876Z,4.20
2023-01-01T15:15:38.183Z,3.50
2023-01-01T15:18:42.980Z,3.30
2023-01-01T15:21:46.983Z,3.40
2023-01-01T15:24:51.352Z,3.10
2023-01-01T15:27:58.237Z,4.10
2023-01-01T15:31:02.359Z,3.40
2023-01-01T15:34:06.703Z,4.00
2023-01-01T15:37:32.538Z,5.70
2023-01-01T15:40:36.644Z,4.50
2023-01-01T15:43:41.356Z,4.40
2023-01-01T15:46:48.157Z,4.00
2023-01-01T15:50:32.374Z,4.30
2023-01-01T15:54:15.585Z,4.00
2023-01-01T15:57:22.848Z,4.00
2023-01-01T16:00:35.187Z,4.40
2023-01-01T16:03:41.264Z,3.80
2023-01-01T16:06:48.238Z,4.00
2023-01-01T16:09:57.686Z,4.80
2023-01-01T16:16:26.422Z,4.70
2023-01-01T16:19:32.508Z,5.30
2023-01-01T16:22:36.903Z,4.60
2023-01-01T16:28:45.066Z,5.10
2023-01-01T16:31:51.253Z,4.30
2023-01-01T16:34:55.197Z,4.80
2023-01-01T16:37:59.160Z,4.40
2023-01-01T16:41:03.199Z,3.80
2023-01-01T16:44:07.150Z,4.70
2023-01-01T16:47:11.107Z,8.60
2023-01-01T16:53:19.738Z,9.00
2023-01-01T16:56:23.765Z,10.70
2023-01-01T16:59:27.871Z,8.10
2023-01-01T17:02:31.994Z,11.20
2023-01-01T17:05:43.654Z,14.60
2023-01-01T17:08:48.331Z,19.80
2023-01-01T17:11:52.239Z,23.20
2023-01-01T17:14:56.222Z,18.30
2023-01-01T17:18:00.352Z,16.60
2023-01-01T17:21:09.921Z,12.30
2023-01-01T17:24:15.859Z,16.30
2023-01-01T17:27:19.790Z,19.60
2023-01-01T17:30:23.728Z,15.00
2023-01-01T17:33:28.788Z,7.00
2023-01-01T17:36:32.811Z,7.10
2023-01-01T17:39:36.749Z,4.50
2023-01-01T17:42:40.650Z,4.40
2023-01-01T17:45:44.813Z,4.20
2023-01-01T17:48:49.963Z,3.80
2023-01-01T17:51:53.882Z,4.10
2023-01-01T17:54:58.813Z,3.90
2023-01-01T17:58:02.747Z,4.70
2023-01-01T18:01:22.191Z,4.50
2023-01-01T18:04:26.435Z,4.40
2023-01-01T18:07:30.587Z,4.40
2023-01-01T18:10:35.068Z,6.20
2023-01-01T18:13:39.094Z,4.40
2023-01-01T18:16:45.359Z,4.70
2023-01-01T18:19:49.368Z,4.60
2023-01-01T18:22:53.682Z,4.90
2023-01-01T18:26:00.972Z,5.00
2023-01-01T18:29:05.009Z,5.00
2023-01-01T18:32:08.960Z,5.10
2023-01-01T18:35:12.913Z,4.70
2023-01-01T18:38:19.190Z,4.70
2023-01-01T18:44:36.546Z,4.70
2023-01-01T18:47:40.538Z,5.10
2023-01-01T18:50:44.437Z,4.70
2023-01-01T18:53:54.732Z,4.70
2023-01-01T18:57:07.979Z,4.80
2023-01-01T19:00:18.854Z,4.80
2023-01-01T19:03:28.342Z,4.80
2023-01-01T19:06:33.813Z,4.60
2023-01-01T19:09:38.366Z,4.50
2023-01-01T19:12:43.394Z,8.80
2023-01-01T19:15:48.857Z,7.60
2023-01-01T19:18:53.655Z,7.20
2023-01-01T19:22:08.559Z,8.40
2023-01-01T19:25:36.640Z,8.50
2023-01-01T19:28:52.226Z,10.70
2023-01-01T19:31:58.429Z,8.00
2023-01-01T19:35:02.386Z,6.40
2023-01-01T19:38:06.424Z,6.80
2023-01-01T19:41:11.277Z,5.80
2023-01-01T19:44:18.614Z,5.60
2023-01-01T19:47:27.094Z,5.30
2023-01-01T19:50:31.095Z,5.00
2023-01-01T19:53:35.217Z,4.90
2023-01-01T19:56:39.609Z,5.20
2023-01-01T19:59:43.517Z,4.30
2023-01-01T20:02:48.317Z,5.10
2023-01-01T20:05:52.779Z,4.50
2023-01-01T20:08:56.725Z,4.60
2023-01-01T20:12:00.669Z,4.10
2023-01-01T20:15:06.027Z,5.20
2023-01-01T20:18:09.997Z,4.80
2023-01-01T20:21:32.550Z,5.20
2023-01-01T20:24:37.328Z,5.30
2023-01-01T20:28:00.154Z,5.90
2023-01-01T20:31:04.256Z,5.60
2023-01-01T20:34:08.369Z,5.60
2023-01-01T20:37:31.105Z,5.60
2023-01-01T20:40:35.235Z,6.00
2023-01-01T20:43:39.173Z,5.90
2023-01-01T20:46:44.607Z,5.50
2023-01-01T20:49:48.836Z,7.30
2023-01-01T20:52:52.947Z,7.40
2023-01-01T20:55:56.879Z,7.70
2023-01-01T20:59:24.380Z,7.40
2023-01-01T21:02:26.152Z,6.30
2023-01-01T21:05:30.321Z,6.40
2023-01-01T21:08:34.218Z,7.10
2023-01-01T21:11:38.344Z,6.00
2023-01-01T21:14:42.725Z,6.90
2023-01-01T21:17:46.790Z,5.50
2023-01-01T21:20:50.763Z,6.70
2023-01-01T21:24:01.272Z,6.80
2023-01-01T21:27:08.194Z,5.20
2023-01-01T21:30:13.403Z,7.30
2023-01-01T21:33:27.103Z,6.50
2023-01-01T21:36:31.155Z,6.60
2023-01-01T21:39:35.168Z,6.50
2023-01-01T21:42:39.071Z,7.30
2023-01-01T21:45:46.208Z,7.40
2023-01-01T21:48:57.157Z,6.90
2023-01-01T21:52:02.279Z,7.60
2023-01-01T21:55:23.581Z,6.40
2023-01-01T21:58:53.551Z,7.50
2023-01-01T22:02:35.107Z,7.00
2023-01-01T22:05:42.669Z,7.60
2023-01-01T22:08:47.354Z,7.40
2023-01-01T22:15:06.421Z,7.20
2023-01-01T22:18:24.335Z,7.60
2023-01-01T22:21:31.160Z,7.80
2023-01-01T22:24:36.511Z,7.60
2023-01-01T22:27:40.743Z,7.90
2023-01-01T22:30:44.791Z,7.40
2023-01-01T22:33:49.682Z,6.90
2023-01-01T22:36:53.921Z,8.00
2023-01-01T22:40:00.778Z,7.20
2023-01-01T22:43:17.208Z,6.80
2023-01-01T22:49:46.966Z,6.70
2023-01-01T22:52:51.274Z,7.20
2023-01-01T22:55:55.167Z,7.20
2023-01-01T22:58:59.072Z,7.70
2023-01-01T23:02:03.647Z,7.50
2023-01-01T23:08:11.657Z,7.30
2023-01-01T23:11:15.878Z,6.80
2023-01-01T23:14:39.372Z,7.20
2023-01-01T23:17:43.569Z,6.80
2023-01-01T23:20:47.585Z,7.30
2023-01-01T23:23:52.975Z,6.50
2023-01-01T23:26:58.174Z,6.90
2023-01-01T23:30:03.531Z,6.70
2023-01-01T23:33:07.504Z,6.90
2023-01-01T23:36:11.836Z,7.00
2023-01-01T23:39:15.719Z,6.20
2023-01-01T23:42:19.628Z,7.50
2023-01-01T23:45:23.578Z,6.20
2023-01-01T23:48:28.729Z,7.00
2023-01-01T23:51:34.072Z,7.90
2023-01-01T23:54:39.137Z,6.60
2023-01-01T23:57:43.111Z,7.10
